This is the latest recevied weather packets stored in our database for station/object IZ1UQG-2. If no packets are shown the sender has not sent any weather packets the latest 10 day(s).
| Time | Temp. | Humidity | Pressure | Rain* | Wind** | Luminosity | Snow |
|---|---|---|---|---|---|---|---|
| 1777815246 | 22.78° C | 36% | 1015.6 hPa | 0 mm | - | 531 W/m² | - |
| 1777815185 | 22.78° C | 35% | 1015.5 hPa | 0 mm | - | 605 W/m² | - |
| 1777815128 | 23.33° C | 36% | 1015.4 hPa | 0 mm | - | 612 W/m² | - |
| 1777814706 | 23.33° C | 34% | 1015.4 hPa | 0 mm | - | 541 W/m² | - |
| 1777814646 | 23.33° C | 34% | 1015.6 hPa | 0 mm | - | 578 W/m² | - |
| 1777814406 | 23.33° C | 34% | 1015.5 hPa | 0 mm | - | 570 W/m² | - |
| 1777814106 | 22.78° C | 35% | 1015.7 hPa | 0 mm | - | 591 W/m² | - |
| 1777814046 | 22.78° C | 35% | 1015.6 hPa | 0 mm | - | 659 W/m² | - |
| 1777813986 | 22.78° C | 35% | 1015.7 hPa | 0 mm | - | 758 W/m² | - |
| 1777813866 | 22.78° C | 35% | 1015.7 hPa | 0 mm | - | 596 W/m² | - |
| 1777813265 | 22.78° C | 38% | 1015.8 hPa | 0 mm | - | 439 W/m² | - |
| 1777813086 | 22.78° C | 37% | 1015.7 hPa | 0 mm | - | 392 W/m² | - |
| 1777812606 | 22.78° C | 39% | 1015.8 hPa | 0 mm | - | 320 W/m² | - |
| 1777811766 | 22.22° C | 39% | 1015.8 hPa | 0 mm | - | 418 W/m² | - |
| 1777811645 | 22.78° C | 39% | 1015.7 hPa | 0 mm | - | 429 W/m² | - |
| 1777811409 | 22.78° C | 37% | 1015.7 hPa | 0 mm | - | 381 W/m² | - |
| 1777810746 | 22.22° C | 41% | 1015.8 hPa | 0 mm | - | 758 W/m² | - |
| 1777810385 | 22.22° C | 42% | 1015.9 hPa | 0 mm | - | 759 W/m² | - |
| 1777810146 | 22.22° C | 41% | 1015.9 hPa | 0 mm | - | 858 W/m² | - |
| 1777809855 | 21.67° C | 43% | 1015.9 hPa | 0 mm | - | 940 W/m² | - |
| 1777809427 | 22.22° C | 37% | 1015.7 hPa | 0 mm | - | 352 W/m² | - |
| 1777809066 | 22.78° C | 39% | 1015.8 hPa | 0 mm | - | 336 W/m² | - |
| 1777808946 | 22.78° C | 38% | 1015.8 hPa | 0 mm | - | 330 W/m² | - |
| 1777808286 | 22.22° C | 36% | 1015.9 hPa | 0 mm | - | 454 W/m² | - |
| 1777807985 | 22.22° C | 36% | 1015.9 hPa | 0 mm | - | 796 W/m² | - |
* Rain latest hour (hover to see other rain measurements)
** Current wind speed in m/s (hover to see current wind gust speed)